createdAt,value
2018-11-20T00:00:48.021Z,4.40
2018-11-20T00:03:35.228Z,3.60
2018-11-20T00:06:45.491Z,3.62
2018-11-20T00:09:46.515Z,4.45
2018-11-20T00:12:43.172Z,4.22
2018-11-20T00:15:35.928Z,4.33
2018-11-20T00:18:23.383Z,4.45
2018-11-20T00:21:18.766Z,4.45
2018-11-20T00:24:14.732Z,4.28
2018-11-20T00:27:16.484Z,4.53
2018-11-20T00:30:15.386Z,4.20
2018-11-20T00:33:04.083Z,3.87
2018-11-20T00:35:59.346Z,4.60
2018-11-20T00:38:55.364Z,4.78
2018-11-20T00:41:41.544Z,4.92
2018-11-20T00:44:45.953Z,4.25
2018-11-20T00:47:44.885Z,4.12
2018-11-20T00:50:43.399Z,4.20
2018-11-20T00:53:37.032Z,4.58
2018-11-20T00:57:11.225Z,4.05
2018-11-20T01:00:06.810Z,5.03
2018-11-20T01:03:09.610Z,4.65
2018-11-20T01:06:05.732Z,4.35
2018-11-20T01:08:49.953Z,5.00
2018-11-20T01:11:57.742Z,4.85
2018-11-20T01:14:58.814Z,5.08
2018-11-20T01:17:49.988Z,4.58
2018-11-20T01:20:56.991Z,4.30
2018-11-20T01:23:51.668Z,4.95
2018-11-20T01:26:49.967Z,5.00
2018-11-20T01:29:40.608Z,5.20
2018-11-20T01:32:54.719Z,5.23
2018-11-20T01:35:49.073Z,4.55
2018-11-20T01:38:44.212Z,4.95
2018-11-20T01:41:54.766Z,4.60
2018-11-20T01:44:56.784Z,4.70
2018-11-20T01:48:01.356Z,4.33
2018-11-20T01:51:03.040Z,4.62
2018-11-20T01:53:58.305Z,4.97
2018-11-20T01:56:52.929Z,4.90
2018-11-20T01:59:46.870Z,5.15
2018-11-20T02:02:55.018Z,5.03
2018-11-20T02:05:49.203Z,4.97
2018-11-20T02:08:47.782Z,4.62
2018-11-20T02:11:49.590Z,5.47
2018-11-20T02:14:51.729Z,5.05
2018-11-20T02:18:05.871Z,5.00
2018-11-20T02:21:11.118Z,4.80
2018-11-20T02:24:21.574Z,5.17
2018-11-20T02:27:22.798Z,4.67
2018-11-20T02:30:26.731Z,4.97
2018-11-20T02:33:37.417Z,5.65
2018-11-20T02:36:27.961Z,6.45
2018-11-20T02:39:37.930Z,5.45
2018-11-20T02:42:40.235Z,5.90
2018-11-20T02:45:35.453Z,5.97
2018-11-20T02:48:31.546Z,5.67
2018-11-20T02:51:25.281Z,5.72
2018-11-20T02:54:30.690Z,5.80
2018-11-20T02:57:24.378Z,5.42
2018-11-20T03:00:22.961Z,5.15
2018-11-20T03:03:13.970Z,5.55
2018-11-20T03:06:08.009Z,5.35
2018-11-20T03:09:01.628Z,6.25
2018-11-20T03:12:13.011Z,5.70
2018-11-20T03:15:07.388Z,5.62
2018-11-20T03:18:11.940Z,5.70
2018-11-20T03:21:05.787Z,5.95
2018-11-20T03:24:01.519Z,6.08
2018-11-20T03:26:59.533Z,5.40
2018-11-20T03:30:25.028Z,6.50
2018-11-20T03:33:15.091Z,6.92
2018-11-20T03:36:29.636Z,6.53
2018-11-20T03:39:29.928Z,6.65
2018-11-20T03:42:24.375Z,6.78
2018-11-20T03:45:18.648Z,6.78
2018-11-20T03:48:13.147Z,5.55
2018-11-20T03:51:21.866Z,6.00
2018-11-20T03:54:32.474Z,6.05
2018-11-20T03:57:27.413Z,6.60
2018-11-20T04:00:25.173Z,5.95
2018-11-20T04:03:30.447Z,5.75
2018-11-20T04:06:24.653Z,6.60
2018-11-20T04:09:20.336Z,6.67
2018-11-20T04:12:31.206Z,6.08
2018-11-20T04:15:39.238Z,7.05
2018-11-20T04:18:40.023Z,6.78
2018-11-20T04:21:34.155Z,6.72
2018-11-20T04:24:32.517Z,6.67
2018-11-20T04:27:28.367Z,6.45
2018-11-20T04:30:56.529Z,6.17
2018-11-20T04:33:59.841Z,5.72
2018-11-20T04:36:59.247Z,5.75
2018-11-20T04:39:57.573Z,6.78
2018-11-20T04:42:59.383Z,6.42
2018-11-20T04:45:54.486Z,6.35
2018-11-20T04:48:44.378Z,7.22
2018-11-20T04:51:31.042Z,6.60
2018-11-20T04:54:24.465Z,6.25
2018-11-20T04:57:28.745Z,7.90
2018-11-20T05:00:38.008Z,6.40
2018-11-20T05:03:45.749Z,7.33
2018-11-20T05:06:43.806Z,6.47
2018-11-20T05:09:45.198Z,6.83
2018-11-20T05:12:43.436Z,6.58
2018-11-20T05:15:51.704Z,7.55
2018-11-20T05:18:50.188Z,6.60
2018-11-20T05:21:48.215Z,6.30
2018-11-20T05:24:42.251Z,6.20
2018-11-20T05:27:46.733Z,6.33
2018-11-20T05:30:46.577Z,6.65
2018-11-20T05:33:41.366Z,7.00
2018-11-20T05:36:28.970Z,6.80
2018-11-20T05:39:26.544Z,6.50
2018-11-20T05:42:28.058Z,6.00
2018-11-20T05:45:32.273Z,6.53
2018-11-20T05:48:23.322Z,6.85
2018-11-20T05:51:37.101Z,7.22
2018-11-20T05:54:48.047Z,6.47
2018-11-20T05:57:35.091Z,7.33
2018-11-20T06:00:29.891Z,6.72
2018-11-20T06:03:27.547Z,6.00
2018-11-20T06:06:40.903Z,6.83
2018-11-20T06:09:35.294Z,6.50
2018-11-20T06:12:30.152Z,7.10
2018-11-20T06:15:24.595Z,7.28
2018-11-20T06:18:28.365Z,7.12
2018-11-20T06:21:42.926Z,7.55
2018-11-20T06:24:47.397Z,7.40
2018-11-20T06:27:51.717Z,7.35
2018-11-20T06:30:46.072Z,6.80
2018-11-20T06:33:56.597Z,7.67
2018-11-20T06:37:10.370Z,6.92
2018-11-20T06:40:09.717Z,6.85
2018-11-20T06:43:14.303Z,7.35
2018-11-20T06:46:10.398Z,14.90
2018-11-20T06:49:05.827Z,12.15
2018-11-20T06:51:59.472Z,10.85
2018-11-20T06:55:07.059Z,9.37
2018-11-20T06:58:01.269Z,9.00
2018-11-20T07:01:15.416Z,9.18
2018-11-20T07:04:09.276Z,8.90
2018-11-20T07:07:03.659Z,8.95
2018-11-20T07:10:08.241Z,9.13
2018-11-20T07:13:03.043Z,9.08
2018-11-20T07:15:57.242Z,7.70
2018-11-20T07:18:51.354Z,8.20
2018-11-20T07:21:51.929Z,8.03
2018-11-20T07:24:51.585Z,8.33
2018-11-20T07:27:53.152Z,7.67
2018-11-20T07:30:49.295Z,8.53
2018-11-20T07:33:47.431Z,8.18
2018-11-20T07:36:46.437Z,7.90
2018-11-20T07:39:51.152Z,7.67
2018-11-20T07:42:55.586Z,7.78
2018-11-20T07:46:02.689Z,7.95
2018-11-20T07:49:03.591Z,8.28
2018-11-20T07:52:02.719Z,7.70
2018-11-20T07:54:55.228Z,7.70
2018-11-20T07:57:51.539Z,7.70
2018-11-20T08:00:46.763Z,8.40
2018-11-20T08:03:35.560Z,7.50
2018-11-20T08:06:30.036Z,7.47
2018-11-20T08:09:37.253Z,7.08
2018-11-20T08:12:23.817Z,7.60
2018-11-20T08:15:25.519Z,8.28
2018-11-20T08:18:11.461Z,7.70
2018-11-20T08:20:54.700Z,7.85
2018-11-20T08:23:48.742Z,7.55
2018-11-20T08:26:47.397Z,7.28
2018-11-20T08:29:41.482Z,7.50
2018-11-20T08:32:51.842Z,8.73
2018-11-20T08:35:42.354Z,8.07
2018-11-20T08:38:36.178Z,8.03
2018-11-20T08:41:44.490Z,7.67
2018-11-20T08:44:39.179Z,8.73
2018-11-20T08:47:46.798Z,8.28
2018-11-20T08:51:00.594Z,7.45
2018-11-20T08:54:04.339Z,8.13
2018-11-20T08:57:02.602Z,8.53
2018-11-20T08:59:52.948Z,6.92
2018-11-20T09:03:01.041Z,8.00
2018-11-20T09:05:54.635Z,7.50
2018-11-20T09:08:44.775Z,7.80
2018-11-20T09:11:42.894Z,8.00
2018-11-20T09:14:37.751Z,8.00
2018-11-20T09:17:41.950Z,8.13
2018-11-20T09:20:43.661Z,6.87
2018-11-20T09:23:37.554Z,7.80
2018-11-20T09:26:33.025Z,8.18
2018-11-20T09:29:27.957Z,7.83
2018-11-20T09:32:12.995Z,7.95
2018-11-20T09:35:11.115Z,7.83
2018-11-20T09:38:00.021Z,8.13
2018-11-20T09:41:09.521Z,8.10
2018-11-20T09:44:52.944Z,7.95
2018-11-20T09:47:48.712Z,8.18
2018-11-20T09:50:47.761Z,8.43
2018-11-20T09:53:42.354Z,8.28
2018-11-20T09:56:30.364Z,9.07
2018-11-20T09:59:25.414Z,7.90
2018-11-20T10:02:21.074Z,7.65
2018-11-20T10:05:31.514Z,8.08
2018-11-20T10:08:27.511Z,8.48
2018-11-20T10:11:29.870Z,8.10
2018-11-20T10:14:24.197Z,7.50
2018-11-20T10:17:37.237Z,7.85
2018-11-20T10:20:40.347Z,9.23
2018-11-20T10:23:36.511Z,8.38
2018-11-20T10:26:30.995Z,8.90
2018-11-20T10:29:47.694Z,8.93
2018-11-20T10:32:57.222Z,7.90
2018-11-20T10:35:51.529Z,8.88
2018-11-20T10:38:47.200Z,7.95
2018-11-20T10:41:41.669Z,8.40
2018-11-20T10:44:52.165Z,7.90
2018-11-20T10:47:53.701Z,7.80
2018-11-20T10:50:48.185Z,8.28
2018-11-20T10:53:48.969Z,8.20
2018-11-20T10:56:35.788Z,8.08
2018-11-20T10:59:31.141Z,8.63
2018-11-20T11:02:25.274Z,8.23
2018-11-20T11:05:18.822Z,8.15
2018-11-20T11:08:12.123Z,8.35
2018-11-20T11:11:04.776Z,7.95
2018-11-20T11:13:57.005Z,8.38
2018-11-20T11:16:52.251Z,8.33
2018-11-20T11:19:46.871Z,7.30
2018-11-20T11:22:41.030Z,7.83
2018-11-20T11:25:43.069Z,8.35
2018-11-20T11:28:57.137Z,8.13
2018-11-20T11:31:53.466Z,7.78
2018-11-20T11:35:04.141Z,8.08
2018-11-20T11:38:02.539Z,7.40
2018-11-20T11:41:04.004Z,7.17
2018-11-20T11:44:08.334Z,7.25
2018-11-20T11:47:21.941Z,8.60
2018-11-20T11:50:15.792Z,8.50
2018-11-20T11:53:09.275Z,8.05
2018-11-20T11:56:03.233Z,8.18
2018-11-20T11:58:49.049Z,8.40
2018-11-20T12:04:42.428Z,7.20
2018-11-20T12:07:28.169Z,8.10
2018-11-20T12:10:19.723Z,7.42
2018-11-20T12:16:12.184Z,6.83
2018-11-20T12:19:10.441Z,7.05
2018-11-20T12:22:13.671Z,7.75
2018-11-20T12:25:07.262Z,7.28
2018-11-20T12:27:58.835Z,7.30
2018-11-20T12:30:58.852Z,8.58
2018-11-20T12:34:03.967Z,7.97
2018-11-20T12:36:48.848Z,7.50
2018-11-20T12:39:48.412Z,7.60
2018-11-20T12:42:43.913Z,8.08
2018-11-20T12:45:57.726Z,7.62
2018-11-20T12:48:51.335Z,7.45
2018-11-20T12:51:59.434Z,8.10
2018-11-20T12:55:00.583Z,7.03
2018-11-20T12:57:54.296Z,7.78
2018-11-20T13:00:40.504Z,7.17
2018-11-20T13:03:37.000Z,6.80
2018-11-20T13:06:31.227Z,7.85
2018-11-20T13:09:41.796Z,7.80
2018-11-20T13:12:49.604Z,7.58
2018-11-20T13:15:43.343Z,6.90
2018-11-20T13:18:39.332Z,6.67
2018-11-20T13:21:40.669Z,7.33
2018-11-20T13:24:29.542Z,7.30
2018-11-20T13:27:33.361Z,7.30
2018-11-20T13:30:25.455Z,7.75
2018-11-20T13:33:36.308Z,7.42
2018-11-20T13:36:30.003Z,6.90
2018-11-20T13:39:46.084Z,6.95
2018-11-20T13:42:32.479Z,7.53
2018-11-20T13:45:40.664Z,6.42
2018-11-20T13:48:35.865Z,7.03
2018-11-20T13:51:43.249Z,6.75
2018-11-20T13:54:38.635Z,7.67
2018-11-20T13:57:32.626Z,6.33
2018-11-20T14:00:26.687Z,6.10
2018-11-20T14:03:22.364Z,6.97
2018-11-20T14:06:18.114Z,7.85
2018-11-20T14:09:29.423Z,6.75
2018-11-20T14:12:40.818Z,6.22
2018-11-20T14:15:32.885Z,6.55
2018-11-20T14:18:22.519Z,7.05
2018-11-20T14:21:20.826Z,7.10
2018-11-20T14:24:14.905Z,7.08
2018-11-20T14:27:07.180Z,6.42
2018-11-20T14:30:05.122Z,6.78
2018-11-20T14:32:59.318Z,6.05
2018-11-20T14:36:03.690Z,6.28
2018-11-20T14:38:57.760Z,6.72
2018-11-20T14:41:51.465Z,6.15
2018-11-20T14:44:49.730Z,6.42
2018-11-20T14:47:45.450Z,6.62
2018-11-20T14:50:40.498Z,6.00
2018-11-20T14:53:39.355Z,6.25
2018-11-20T14:56:53.166Z,6.63
2018-11-20T14:59:46.873Z,6.33
2018-11-20T15:02:38.229Z,7.10
2018-11-20T15:05:35.726Z,6.75
2018-11-20T15:08:30.276Z,6.53
2018-11-20T15:11:19.197Z,6.28
2018-11-20T15:14:27.347Z,5.67
2018-11-20T15:17:38.192Z,7.12
2018-11-20T15:20:33.017Z,6.42
2018-11-20T15:23:35.132Z,6.60
2018-11-20T15:26:30.488Z,6.28
2018-11-20T15:29:15.457Z,6.58
2018-11-20T15:32:11.102Z,6.50
2018-11-20T15:34:54.152Z,6.70
2018-11-20T15:37:48.344Z,6.47
2018-11-20T15:40:44.265Z,6.75
2018-11-20T15:43:49.351Z,6.55
2018-11-20T15:46:44.914Z,6.37
2018-11-20T15:49:44.536Z,6.17
2018-11-20T15:52:38.639Z,6.00
2018-11-20T15:55:43.592Z,6.35
2018-11-20T15:58:37.787Z,6.45
2018-11-20T16:01:40.762Z,6.87
2018-11-20T16:04:44.756Z,6.42
2018-11-20T16:07:32.530Z,6.62
2018-11-20T16:10:37.120Z,5.58
2018-11-20T16:13:36.570Z,6.10
2018-11-20T16:16:20.364Z,7.90
2018-11-20T16:19:14.463Z,6.83
2018-11-20T16:22:13.344Z,6.93
2018-11-20T16:25:08.403Z,6.55
2018-11-20T16:28:04.060Z,6.75
2018-11-20T16:30:54.622Z,6.97
2018-11-20T16:34:02.742Z,6.78
2018-11-20T16:36:56.829Z,7.30
2018-11-20T16:39:50.942Z,8.15
2018-11-20T16:42:46.251Z,8.90
2018-11-20T16:45:47.366Z,7.30
2018-11-20T16:48:45.574Z,9.05
2018-11-20T16:51:46.509Z,8.20
2018-11-20T16:55:00.147Z,7.45
2018-11-20T16:58:10.555Z,7.90
2018-11-20T17:01:02.070Z,9.25
2018-11-20T17:03:56.952Z,8.73
2018-11-20T17:07:01.178Z,8.05
2018-11-20T17:09:55.832Z,7.80
2018-11-20T17:12:57.604Z,8.98
2018-11-20T17:15:51.912Z,7.85
2018-11-20T17:18:53.166Z,8.45
2018-11-20T17:21:58.254Z,7.70
2018-11-20T17:25:06.764Z,7.78
2018-11-20T17:28:07.911Z,7.97
2018-11-20T17:31:10.313Z,8.05
2018-11-20T17:34:04.576Z,7.47
2018-11-20T17:37:08.946Z,8.58
2018-11-20T17:40:12.561Z,7.95
2018-11-20T17:43:14.147Z,8.60
2018-11-20T17:46:11.849Z,7.78
2018-11-20T17:49:17.526Z,7.95
2018-11-20T17:52:11.506Z,7.92
2018-11-20T17:55:24.843Z,7.92
2018-11-20T17:58:25.141Z,10.03
2018-11-20T18:01:17.027Z,10.82
2018-11-20T18:04:11.035Z,12.10
2018-11-20T18:07:06.811Z,13.75
2018-11-20T18:10:20.493Z,16.17
2018-11-20T18:13:11.171Z,18.50
2018-11-20T18:16:03.051Z,21.05
2018-11-20T18:18:57.786Z,23.00
2018-11-20T18:21:51.407Z,25.77
2018-11-20T18:24:56.929Z,28.50
2018-11-20T18:27:52.150Z,29.65
2018-11-20T18:30:47.517Z,30.55
2018-11-20T18:33:48.325Z,30.12
2018-11-20T18:36:42.812Z,31.80
2018-11-20T18:39:52.178Z,30.70
2018-11-20T18:42:48.405Z,34.67
2018-11-20T18:45:50.452Z,32.38
2018-11-20T18:48:44.427Z,32.23
2018-11-20T18:51:51.511Z,34.08
2018-11-20T18:54:45.852Z,34.08
2018-11-20T18:57:39.958Z,35.75
2018-11-20T19:00:54.173Z,33.65
2018-11-20T19:03:43.927Z,34.43
2018-11-20T19:06:36.813Z,35.45
2018-11-20T19:09:31.244Z,31.40
2018-11-20T19:12:26.425Z,30.17
2018-11-20T19:15:21.364Z,30.15
2018-11-20T19:18:16.285Z,30.00
2018-11-20T19:21:21.176Z,28.77
2018-11-20T19:24:35.368Z,28.38
2018-11-20T19:27:29.057Z,27.48
2018-11-20T19:30:25.546Z,33.67
2018-11-20T19:33:35.914Z,34.58
2018-11-20T19:36:49.755Z,33.20
2018-11-20T19:39:59.645Z,30.48
2018-11-20T19:42:56.102Z,30.90
2018-11-20T19:45:50.362Z,27.52
2018-11-20T19:48:54.278Z,27.60
2018-11-20T19:51:48.972Z,26.95
2018-11-20T19:54:43.299Z,26.37
2018-11-20T19:57:38.780Z,27.48
2018-11-20T20:00:33.111Z,24.10
2018-11-20T20:03:25.068Z,24.80
2018-11-20T20:06:19.302Z,24.37
2018-11-20T20:09:26.773Z,24.07
2018-11-20T20:12:34.886Z,23.67
2018-11-20T20:15:28.719Z,22.35
2018-11-20T20:18:23.402Z,22.25
2018-11-20T20:21:22.260Z,20.77
2018-11-20T20:24:05.503Z,20.92
2018-11-20T20:26:58.708Z,21.85
2018-11-20T20:29:55.089Z,20.62
2018-11-20T20:32:59.202Z,20.12
2018-11-20T20:35:57.475Z,19.62
2018-11-20T20:38:52.161Z,17.87
2018-11-20T20:41:46.995Z,19.82
2018-11-20T20:44:41.836Z,18.42
2018-11-20T20:47:39.875Z,17.80
2018-11-20T20:50:34.435Z,17.37
2018-11-20T20:53:28.318Z,17.10
2018-11-20T20:56:22.680Z,15.15
2018-11-20T20:59:23.034Z,14.98
2018-11-20T21:02:29.125Z,14.98
2018-11-20T21:05:26.567Z,15.80
2018-11-20T21:08:15.575Z,15.60
2018-11-20T21:11:09.784Z,14.95
2018-11-20T21:14:04.404Z,15.48
2018-11-20T21:17:08.613Z,14.50
2018-11-20T21:20:19.142Z,14.70
2018-11-20T21:23:29.645Z,14.38
2018-11-20T21:27:23.360Z,13.75
2018-11-20T21:30:30.680Z,13.72
2018-11-20T21:33:24.539Z,13.18
2018-11-20T21:36:25.568Z,12.98
2018-11-20T21:39:18.699Z,13.10
2018-11-20T21:42:11.329Z,12.33
2018-11-20T21:45:22.113Z,11.95
2018-11-20T21:48:11.352Z,11.65
2018-11-20T21:51:15.000Z,10.82
2018-11-20T21:54:02.885Z,11.75
2018-11-20T21:57:03.475Z,11.60
2018-11-20T22:00:14.106Z,11.35
2018-11-20T22:03:07.452Z,10.18
2018-11-20T22:06:01.696Z,10.95
2018-11-20T22:08:52.082Z,10.88
2018-11-20T22:11:46.818Z,11.45
2018-11-20T22:14:50.612Z,11.18
2018-11-20T22:17:43.611Z,10.35
2018-11-20T22:20:38.296Z,10.28
2018-11-20T22:23:37.040Z,10.75
2018-11-20T22:26:41.019Z,10.00
2018-11-20T22:29:26.282Z,9.05
2018-11-20T22:32:21.552Z,9.70
2018-11-20T22:35:15.115Z,9.98
2018-11-20T22:38:22.242Z,9.78
2018-11-20T22:41:20.368Z,8.98
2018-11-20T22:44:25.290Z,9.33
2018-11-20T22:47:29.759Z,8.48
2018-11-20T22:50:31.041Z,9.40
2018-11-20T22:53:31.356Z,8.40
2018-11-20T22:56:29.473Z,9.18
2018-11-20T22:59:39.668Z,8.53
2018-11-20T23:02:47.524Z,8.73
2018-11-20T23:05:41.974Z,7.40
2018-11-20T23:08:18.184Z,8.23
2018-11-20T23:10:53.939Z,8.43
2018-11-20T23:13:29.110Z,8.23
2018-11-20T23:16:04.789Z,8.15
2018-11-20T23:18:39.891Z,8.18
2018-11-20T23:21:15.940Z,7.53
2018-11-20T23:23:51.454Z,7.85
2018-11-20T23:26:27.142Z,6.95
2018-11-20T23:29:02.833Z,7.67
2018-11-20T23:31:39.282Z,7.78
2018-11-20T23:34:15.488Z,7.92
2018-11-20T23:36:50.822Z,7.37
2018-11-20T23:39:26.505Z,7.10
2018-11-20T23:42:02.281Z,7.10
2018-11-20T23:44:38.222Z,7.95
2018-11-20T23:47:13.644Z,7.33
2018-11-20T23:49:48.662Z,6.47
2018-11-20T23:52:24.146Z,7.05
2018-11-20T23:55:00.581Z,7.75
2018-11-20T23:57:36.381Z,6.83
